METAR Data
IDs: Format: Raw Decoded Include TAF

Data at: 1306 UTC 07 Jul 2020

METAR for:KIAH (Houston/Bush Intl, TX, US)
Text:KIAH 071253Z 17004KT 10SM SCT012 BKN180 BKN250 28/26 A2996 RMK AO2 SLP144 T02830256
Temperature: 28.3°C ( 83°F)
Dewpoint: 25.6°C ( 78°F) [RH = 85%]
Pressure (altimeter):29.96 inches Hg (1014.6 mb) [Sea level pressure: 1014.4 mb]
Winds:from the S (170 degrees) at 5 MPH (4 knots; 2.1 m/s)
Visibility:10 or more sm (16+ km)
Ceiling:18000 feet AGL
Clouds: scattered clouds at 1200 feet AGL, broken clouds at 18000 feet AGL, broken clouds at 25000 feet AGL

METAR for:KHOU (Houston/Hobby Arpt, TX, US)
Text:KHOU 071253Z 17008KT 10SM SCT190 SCT250 29/26 A2995 RMK AO2 SLP147 T02890256
Temperature: 28.9°C ( 84°F)
Dewpoint: 25.6°C ( 78°F) [RH = 82%]
Pressure (altimeter):29.95 inches Hg (1014.3 mb) [Sea level pressure: 1014.7 mb]
Winds:from the S (170 degrees) at 9 MPH (8 knots; 4.1 m/s)
Visibility:10 or more sm (16+ km)
Ceiling:at least 12,000 feet AGL
Clouds: scattered clouds at 19000 feet AGL, scattered clouds at 25000 feet AGL

METAR for:KGLS (Galveston/Scholes In, TX, US)
Text:KGLS 071252Z 18012KT 10SM FEW026 SCT033 30/27 A2997 RMK AO2 SLP148 T03000267
Temperature: 30.0°C ( 86°F)
Dewpoint: 26.7°C ( 80°F) [RH = 83%]
Pressure (altimeter):29.97 inches Hg (1015.0 mb) [Sea level pressure: 1014.8 mb]
Winds:from the S (180 degrees) at 14 MPH (12 knots; 6.2 m/s)
Visibility:10 or more sm (16+ km)
Ceiling:at least 12,000 feet AGL
Clouds: few clouds at 2600 feet AGL, scattered clouds at 3300 feet AGL

METAR for:KLVJ (Houston/Pearland Rgn, TX, US)
Text:KLVJ 071253Z AUTO 18004KT 8SM CLR 29/25 A2998 RMK AO2 SLP151 T02890250
Temperature: 28.9°C ( 84°F)
Dewpoint: 25.0°C ( 77°F) [RH = 80%]
Pressure (altimeter):29.98 inches Hg (1015.3 mb) [Sea level pressure: 1015.1 mb]
Winds:from the S (180 degrees) at 5 MPH (4 knots; 2.1 m/s)
Visibility: 8 sm ( 13 km)
Ceiling:at least 12,000 feet AGL
Clouds:sky clear below 12,000 feet AGL
QC Flag:automated observation with no human augmentation

METAR for:KSGR (Houston/Sugar Land R, TX, US)
Text:KSGR 071253Z 17007KT 10SM CLR 28/27 A2996 RMK AO2 SLP144 T02780267
Temperature: 27.8°C ( 82°F)
Dewpoint: 26.7°C ( 80°F) [RH = 94%]
Pressure (altimeter):29.96 inches Hg (1014.6 mb) [Sea level pressure: 1014.4 mb]
Winds:from the S (170 degrees) at 8 MPH (7 knots; 3.6 m/s)
Visibility:10 or more sm (16+ km)
Ceiling:at least 12,000 feet AGL
Clouds:sky clear below 12,000 feet AGL

METAR for:KDWH (Houston/Hooks Mem, TX, US)
Text:KDWH 071253Z AUTO 20004KT 9SM BKN011 27/25 A2996 RMK AO2 SLP144 T02720250
Temperature: 27.2°C ( 81°F)
Dewpoint: 25.0°C ( 77°F) [RH = 88%]
Pressure (altimeter):29.96 inches Hg (1014.6 mb) [Sea level pressure: 1014.4 mb]
Winds:from the SSW (200 degrees) at 5 MPH (4 knots; 2.1 m/s)
Visibility: 9 sm ( 14 km)
Ceiling:1100 feet AGL
Clouds: broken clouds at 1100 feet AGL
QC Flag:automated observation with no human augmentation

METAR for:KCLL (College Station/East, TX, US)
Text:KCLL 071253Z 17009KT 10SM FEW027 27/25 A2995 RMK AO2 SLP136 T02720250
Temperature: 27.2°C ( 81°F)
Dewpoint: 25.0°C ( 77°F) [RH = 88%]
Pressure (altimeter):29.95 inches Hg (1014.3 mb) [Sea level pressure: 1013.6 mb]
Winds:from the S (170 degrees) at 10 MPH (9 knots; 4.6 m/s)
Visibility:10 or more sm (16+ km)
Ceiling:at least 12,000 feet AGL
Clouds: few clouds at 2700 feet AGL

METAR for:KUTS (Huntsville Muni, TX, US)
Text:KUTS 071303Z AUTO 18006KT 10SM BKN013 BKN018 28/24 A2997 RMK AO2 T02830244
Temperature: 28.3°C ( 83°F)
Dewpoint: 24.4°C ( 76°F) [RH = 79%]
Pressure (altimeter):29.97 inches Hg (1015.0 mb)
Winds:from the S (180 degrees) at 7 MPH (6 knots; 3.1 m/s)
Visibility:10 or more sm (16+ km)
Ceiling:1300 feet AGL
Clouds: broken clouds at 1300 feet AGL, broken clouds at 1800 feet AGL
QC Flag:automated observation with no human augmentation

METAR for:KCXO (Conroe/Executive Arp, TX, US)
Text:KCXO 071253Z 17003KT 10SM BKN021 BKN029 28/26 A2997 RMK AO2 SLP145 T02780256
Temperature: 27.8°C ( 82°F)
Dewpoint: 25.6°C ( 78°F) [RH = 88%]
Pressure (altimeter):29.97 inches Hg (1015.0 mb) [Sea level pressure: 1014.5 mb]
Winds:from the S (170 degrees) at 3 MPH (3 knots; 1.5 m/s)
Visibility:10 or more sm (16+ km)
Ceiling:2100 feet AGL
Clouds: broken clouds at 2100 feet AGL, broken clouds at 2900 feet AGL

METAR for:KLBX (Angleton/Texas Gulf, TX, US)
Text:KLBX 071253Z AUTO 18006KT 9SM FEW032 28/26 A2996 RMK AO2 SLP146 T02780261
Temperature: 27.8°C ( 82°F)
Dewpoint: 26.1°C ( 79°F) [RH = 91%]
Pressure (altimeter):29.96 inches Hg (1014.6 mb) [Sea level pressure: 1014.6 mb]
Winds:from the S (180 degrees) at 7 MPH (6 knots; 3.1 m/s)
Visibility: 9 sm ( 14 km)
Ceiling:at least 12,000 feet AGL
Clouds: few clouds at 3200 feet AGL
QC Flag:automated observation with no human augmentation

METAR for:KPSX (Palacios Muni, TX, US)
Text:KPSX 071253Z AUTO 18013KT 7SM FEW015 SCT020 SCT026 29/26 A2994 RMK AO2 SLP139 T02940261
Temperature: 29.4°C ( 85°F)
Dewpoint: 26.1°C ( 79°F) [RH = 82%]
Pressure (altimeter):29.94 inches Hg (1014.0 mb) [Sea level pressure: 1013.9 mb]
Winds:from the S (180 degrees) at 15 MPH (13 knots; 6.7 m/s)
Visibility: 7 sm ( 11 km)
Ceiling:at least 12,000 feet AGL
Clouds: few clouds at 1500 feet AGL, scattered clouds at 2000 feet AGL, scattered clouds at 2600 feet AGL
QC Flag:automated observation with no human augmentation